Gravette, AR (72736)

12:28 PM CDT on April 18, 2015 (GMT -0500)
Gravette Westside | | Change Station
CLOSE
Current Station
Personal Weather Station
Location: Gravette, AR
Elevation: 1220 ft
Nearby Weather Stations

Elev 1220 ft 36.42 °N, 94.46 °W | Updated 16 seconds ago

Overcast
Overcast
61.7 °F
Feels Like 61.7 °F
N
0.0
Wind Variable Wind from ENE
Gusts 1.8 mph

Today
High -- | Low -- °F
--% Chance of Precip.
Yesterday
High -- | Low -- °F
Precip. -- in
6:40 AM 7:54 PM
Waning Crescent, 0% visible
Pressure 29.97 in
Visibility 10.0 miles
Clouds Few 2200 ft
Mostly Cloudy 7500 ft
Overcast 11000 ft
Dew Point 58 °F
Humidity 89%
Rainfall 1.07 in
Snow Depth Not available.
UV 3 out of 12
Pollen 3.90 out of 12
Air Quality Not available.
Flu Activity Sporadic
METAR KXNA 181653Z 31003KT 10SM FEW022 BKN075 OVC110 17/14 A2999 RMK AO2 SLP148 T01720139

More Conditions Fewer Conditions

Pressure 29.97 in
Visibility 10.0 miles
Clouds Few 2200 ft
Mostly Cloudy 7500 ft
Overcast 11000 ft
Dew Point 58 °F
Humidity 89%
Rainfall 1.07 in
Snow Depth Not available.
UV 3 out of 12
Pollen 3.90 out of 12
Air Quality Not available.
Flu Activity Sporadic
METAR KXNA 181653Z 31003KT 10SM FEW022 BKN075 OVC110 17/14 A2999 RMK AO2 SLP148 T01720139

More Conditions Fewer Conditions

10-Day Weather Forecast

Almanac

Astronomy

Apr. 18, 2015 Rise Set
Actual Time
Civil Twilight
Nautical Twilight
Astronomical Twilight
Moon
Length of Visible Light
Length of Day
Tomorrow will be .
, % of the Moon is Illuminated

Today's Extremes

State Highs State Lows

Community

WunderPhotos

Upload Photos

1,814,467 photos uploaded!

WunderBlogs® & News

Nearby

Air Quality

  Air Quality AQ Index Pollutant
Not available.

Snow Depth

Station Depth Elevation

Earthquake Activity

City Distance Mag. Time & Date
Minimum magnitude displayed is 2.5.

Coastal Water Temperatures

Place Temperature

Stations

Nearby Weather Stations

Station Location Temp. Windchill Dew Point Humidity Wind Precip. Elev Updated Type